Situs API Video Gratis Terbaik

AVDBAPI.COM

Cari katalog, periksa data, dan salin URL API bersih dari satu dasbor cepat.

Telegram Gabung komunitas Telegram untuk update!
Today
0
Pembaruan Hari Ini
Censored
313977
Video Disensor
Total
474136
Total Video

Daftar Video

Data terbaru diurutkan berdasarkan waktu pembaruan.

ID Nama CODE Kategori Diperbarui API
262658 120921-01 Memeras Karyawati Kantor Lalu Membawanya ke Love Hotel dan Menumpahkan Sperma ke Dalam Vaginanya 120921-01 Tanpa sensor 2025-08-28 21:34:40 API
262657 033117-002 Jalang Cantik ~ Wanita Cabul Menggoda Dengan Rok Mini Ketat ~ 033117-002 Tanpa sensor 2025-08-28 21:34:30 API
262656 MD0126 Pelayan Seksi / Layanan Pribadi 24 Jam MD0126 AV China 2025-08-28 21:34:20 API
262655 KB1563 Team Kimura Edisi Spesial: Mahasiswi Ditusuk Terus Menerus - KB1563 Tanpa sensor 2025-08-28 21:34:10 API
262654 081522-001 Eksorsisme Memasuki Vagina yang Kerasukan Kuroki Mio 081522-001 Tanpa sensor 2025-08-28 21:34:00 API
262653 C-220306 Tsukasa Aoki Gadis 20 Tahun C-220306 Tanpa sensor 2025-08-28 21:33:50 API
262652 MD0127 Berbagi Istri Lonte / Pelatihan Keras Gadis Perawan MD0127 AV China 2025-08-28 21:33:40 API
262651 FC2-PPV-4501691 Rilis Langsung 4 Agustus, Terbatas 980pt! *Review Belum Terverifikasi / Tes Sensasi Lubang Vagina FC2-PPV-4501691 Tanpa sensor 2025-08-28 21:33:30 API
262650 QT003 Ibu Mertua Menyelinap ke Ranjang Menantu demi Menjadi Selingkuhan Putrinya QT003 AV China 2025-08-28 21:33:20 API
262649 HEYZO-2826 Moe Yamada Non-stop! !! Surga Kenikmatan - Sampai Puzzle Berubah Menjadi Kenikmatan Luar Biasa - HEYZO-2826 Tanpa sensor 2025-08-28 21:33:10 API
262648 042921_001 Slut M Tomoka Yoda 042921_001 Tanpa sensor 2025-08-28 21:33:00 API
262647 CUS-2100 Pengalaman Imersif POV Bersama Gadis Cantik Berambut Twin Tails CUS-2100 AV China 2025-08-28 21:32:50 API
262646 033117-003 Wanita Kantoran Seksi ~ OL ~ 033117-003 Tanpa sensor 2025-08-28 21:32:40 API
262645 MD0128 Reuni 3P Gila / Perang Seks antara Ipar Perempuan dan Kakak Ipar Laki MD0128 AV China 2025-08-28 21:32:30 API
262644 121021-01 Blowjob Cewek Muka Imut Yang Jilat Kayak Makan Es Krim 121021-01 Tanpa sensor 2025-08-28 21:32:20 API
262643 110921-556 Tampilan Eksotis dan Areola yang Cabul 110921-556 Tanpa sensor 2025-08-28 21:32:10 API
262642 H0930-KI220802 Nana Osaki Wanita 35 Tahun Yang Seksi H0930-KI220802 Tanpa sensor 2025-08-28 21:32:00 API
262641 H-0069 Miya Masuda H-0069 Tanpa sensor 2025-08-28 21:31:50 API
262640 LY050 Wanita yang tidur dengan bosnya harus menebus dosa dengan tubuhnya, dan wanita yang menanggung kesalahan bosnya juga mencoba menebus dosa dengan tubuhnya sendiri LY050 AV China 2025-08-28 21:31:40 API
262639 C0930-KI220310 Wanita Matang 39 Tahun Sachiko Furukawa C0930-KI220310 Tanpa sensor 2025-08-28 21:31:30 API
262638 NKD-052 Malaikat Telanjang Kana NKD-052-B Tanpa sensor 2025-08-28 21:31:20 API
262637 HEYZO-2855 Yuko Amakata6 HEYZO-2855 Tanpa sensor 2025-08-28 21:31:10 API
262636 043021_001 Nana Ueyama, istri tetangga yang nakal tanpa bra saat buang sampah di pagi hari 043021_001 Tanpa sensor 2025-08-28 21:31:00 API
262635 081622-001 Cewek Imut Pengen Disikat Dua Lubang Sekaligus! Rina Kawamura 081622-001 Tanpa sensor 2025-08-28 21:30:50 API
262634 CUS-473 [Ruang Karaoke Seksi Ep.1] Gadis Madou Bernyanyi dengan Malu! Capai Nada Tinggi Bersama Dewi Qin Kexin! CUS-473 AV China 2025-08-28 21:30:40 API
262633 MFK0051 Kakak Ipar, Tolong Jadilah Milikku MFK0051 AV China 2025-08-28 21:30:30 API
262632 MD0124 Debut Series / Gadis Liar / Dewi Baru Xu Shuman MD0124 AV China 2025-08-28 21:30:20 API
262631 033117-004 Catwalk Poison 154 Tanpa Sensor 033117-004 Tanpa sensor 2025-08-28 21:30:10 API
262629 050121_001 Jalang Momoka Ogawa 050121_001 Tanpa sensor 2025-08-28 21:29:50 API
262628 H4610-KI221004 Shizuka Nishimura Cantik Berusia 24 Tahun H4610-KI221004 Tanpa sensor 2025-08-28 21:29:40 API
262627 H0930-KI220804 Yuri Kurashiki Wanita 36 Tahun yang Seksi H0930-KI220804 Tanpa sensor 2025-08-28 21:29:30 API
262626 111121-557 Dokumentasi Syuting Pertama Istri Amatir 95 Noriko Seiki 111121-557 Tanpa sensor 2025-08-28 21:29:20 API
262625 C-220310 Sachiko Furukawa Wanita Matang 39 Tahun C-220310 Tanpa sensor 2025-08-28 21:29:10 API
262624 MD0125 Tante, Aku Malas Kerja / Wanita Kaya Seksi Cekat MD0125 AV China 2025-08-28 21:29:00 API
262623 CUS-2101 Elephant Media: Senior Beast Play Dengan Payudara Besar Putih Lembut Yang Bergoyang CUS-2101 AV China 2025-08-28 21:28:50 API
262622 050221_001 Nikah Terus Menerus Bareng Nana Nanaumi 050221_001 Tanpa sensor 2025-08-28 21:28:40 API
262621 121421-01 Tubuhku Terasa Membara Saat Sedang Mendapat Arahan Akting 121421-01 Tanpa sensor 2025-08-28 21:28:30 API
262620 081722-001 Istri Ini Nafsu Banget! Pamer Belahan Dada Besar ke Tempat Sampah 081722-001 Tanpa sensor 2025-08-28 21:28:20 API
262619 111321-558 Wanita Matang Kembali Untuk Dijilat Anusnya dan Disetubuhi Lewat Dubur Himeno Misao 111321-558 Tanpa sensor 2025-08-28 21:28:10 API
262618 HEYZO-2828 Sari Nakamura [Sari Nakamura] Ayo makan pie bareng Sari Nakamura! HEYZO-2828 Tanpa sensor 2025-08-28 21:28:00 API
262617 JUP0034 Janda Iblis! Serangan Bondage SM Yang Kejam JUP0034 Tanpa sensor 2025-08-28 21:27:50 API
262616 CUS-2102 Suami Cuckold CUS-2102 AV China 2025-08-28 21:27:40 API
262615 MD0121 Cewek Gila Dengan Seks Kinky di Malam Titik Balik Matahari Musim Dingin MD0121 AV China 2025-08-28 21:27:30 API
262614 CARIBBEANCOMPR-040517_003 Orgasm Terus Menerus Sambil Menjerit Kenikmatan CARIBBEANCOMPR-040517_003 Tanpa sensor 2025-08-28 21:27:20 API
262613 FC2-PPV-4507938 "Harga Sangat Murah FC2-PPV-4507938 Tanpa sensor 2025-08-28 21:27:10 API
262612 WMOG018 Mahasiswi Asing Cup E Berpayudara Besar Pergi Massage ke Laut Lalu Dikentot Sampai Keluar Air Mani WMOG018 AV China 2025-08-28 21:27:00 API
262611 050421_001 Jalang Miyuki Sakura 050421_001 Tanpa sensor 2025-08-28 21:26:50 API
262610 HEYZO-2851 Kate Pippi: Kamu bisa melakukan apa saja jika merasa nyaman, nikmati hidup dengan 3P bersama 2 gadis cantik! HEYZO-2851 Tanpa sensor 2025-08-28 21:26:40 API
262609 111621-559 Ngentot beneran, seks brutal 111621-559 Tanpa sensor 2025-08-28 21:26:30 API
262608 C0930-KI220313 Wanita Matang Seksi Abe Kanae Usia 56 Tahun C0930-KI220313 Tanpa sensor 2025-08-28 21:26:20 API